sensor_id;sensor_type;location;lat;lon;timestamp;pressure;altitude;pressure_sealevel;temperature;humidity
25130;BME280;13308;50.860;13.664;2022-09-13T05:02:56;96359.72;;;12.71;100.00
25130;BME280;13308;50.860;13.664;2022-09-13T05:05:22;96353.53;;;12.79;100.00
25130;BME280;13308;50.860;13.664;2022-09-13T05:07:51;96354.97;;;12.84;100.00
25130;BME280;13308;50.860;13.664;2022-09-13T05:10:17;96355.41;;;12.82;100.00
25130;BME280;13308;50.860;13.664;2022-09-13T05:12:42;96342.34;;;12.95;100.00
25130;BME280;13308;50.860;13.664;2022-09-13T05:15:08;96345.97;;;12.92;100.00
25130;BME280;13308;50.860;13.664;2022-09-13T05:17:34;96353.19;;;13.02;100.00
25130;BME280;13308;50.860;13.664;2022-09-13T05:20:00;96348.97;;;13.10;100.00
25130;BME280;13308;50.860;13.664;2022-09-13T05:22:25;96350.28;;;13.18;100.00
25130;BME280;13308;50.860;13.664;2022-09-13T05:24:51;96333.84;;;13.36;100.00
25130;BME280;13308;50.860;13.664;2022-09-13T05:27:16;96333.50;;;13.34;100.00
25130;BME280;13308;50.860;13.664;2022-09-13T05:29:41;96337.72;;;13.26;100.00
25130;BME280;13308;50.860;13.664;2022-09-13T05:32:07;96333.31;;;13.50;100.00
25130;BME280;13308;50.860;13.664;2022-09-13T05:34:32;96340.81;;;13.62;100.00
25130;BME280;13308;50.860;13.664;2022-09-13T05:36:57;96339.94;;;13.65;100.00
25130;BME280;13308;50.860;13.664;2022-09-13T05:39:23;96335.38;;;13.71;100.00
25130;BME280;13308;50.860;13.664;2022-09-13T05:41:48;96332.41;;;13.87;100.00
25130;BME280;13308;50.860;13.664;2022-09-13T05:44:14;96328.06;;;13.86;100.00
25130;BME280;13308;50.860;13.664;2022-09-13T05:46:40;96334.56;;;13.92;100.00
25130;BME280;13308;50.860;13.664;2022-09-13T05:49:06;96335.53;;;13.98;100.00
25130;BME280;13308;50.860;13.664;2022-09-13T05:51:31;96335.63;;;14.07;100.00
25130;BME280;13308;50.860;13.664;2022-09-13T05:53:57;96337.94;;;14.30;100.00
25130;BME280;13308;50.860;13.664;2022-09-13T05:56:26;96324.00;;;14.21;100.00
25130;BME280;13308;50.860;13.664;2022-09-13T05:58:53;96321.75;;;14.29;100.00
25130;BME280;13308;50.860;13.664;2022-09-13T06:01:21;96315.63;;;14.12;100.00
25130;BME280;13308;50.860;13.664;2022-09-13T06:03:51;96315.38;;;14.19;100.00
25130;BME280;13308;50.860;13.664;2022-09-13T06:06:17;96316.72;;;14.36;100.00
25130;BME280;13308;50.860;13.664;2022-09-13T06:08:43;96318.34;;;14.55;100.00
25130;BME280;13308;50.860;13.664;2022-09-13T06:11:10;96314.72;;;14.76;100.00
25130;BME280;13308;50.860;13.664;2022-09-13T06:13:36;96310.44;;;14.93;100.00
25130;BME280;13308;50.860;13.664;2022-09-13T06:16:04;96322.31;;;14.94;100.00
25130;BME280;13308;50.860;13.664;2022-09-13T06:18:29;96316.66;;;15.15;100.00
25130;BME280;13308;50.860;13.664;2022-09-13T06:21:06;96316.72;;;15.33;100.00
25130;BME280;13308;50.860;13.664;2022-09-13T06:23:32;96314.28;;;15.62;100.00
25130;BME280;13308;50.860;13.664;2022-09-13T06:26:07;96314.25;;;15.98;100.00
25130;BME280;13308;50.860;13.664;2022-09-13T06:28:35;96312.63;;;16.42;100.00
25130;BME280;13308;50.860;13.664;2022-09-13T06:31:09;96309.66;;;16.87;98.76
25130;BME280;13308;50.860;13.664;2022-09-13T06:33:36;96300.94;;;17.03;95.95
25130;BME280;13308;50.860;13.664;2022-09-13T06:36:04;96314.59;;;17.16;93.85
25130;BME280;13308;50.860;13.664;2022-09-13T06:38:30;96304.75;;;17.38;92.13
25130;BME280;13308;50.860;13.664;2022-09-13T06:41:16;96318.63;;;17.47;92.37
25130;BME280;13308;50.860;13.664;2022-09-13T06:43:44;96318.03;;;17.43;91.60
25130;BME280;13308;50.860;13.664;2022-09-13T06:46:12;96330.75;;;17.35;91.80
25130;BME280;13308;50.860;13.664;2022-09-13T06:48:39;96323.31;;;17.41;92.22
25130;BME280;13308;50.860;13.664;2022-09-13T06:51:12;96318.91;;;17.49;91.60
25130;BME280;13308;50.860;13.664;2022-09-13T06:53:39;96323.47;;;17.61;91.40
25130;BME280;13308;50.860;13.664;2022-09-13T06:56:15;96315.22;;;17.67;91.89
25130;BME280;13308;50.860;13.664;2022-09-13T06:58:42;96329.16;;;18.05;90.45
25130;BME280;13308;50.860;13.664;2022-09-13T07:01:20;96336.66;;;18.13;89.50
25130;BME280;13308;50.860;13.664;2022-09-13T07:03:53;96330.47;;;18.47;89.97
25130;BME280;13308;50.860;13.664;2022-09-13T07:06:24;96337.69;;;18.54;87.27
25130;BME280;13308;50.860;13.664;2022-09-13T07:08:54;96331.50;;;18.79;86.81
25130;BME280;13308;50.860;13.664;2022-09-13T07:11:23;96327.88;;;19.07;86.22
25130;BME280;13308;50.860;13.664;2022-09-13T07:13:50;96328.97;;;18.95;84.59
25130;BME280;13308;50.860;13.664;2022-09-13T07:16:16;96334.16;;;19.02;85.46
25130;BME280;13308;50.860;13.664;2022-09-13T07:18:41;96322.97;;;19.02;87.62
25130;BME280;13308;50.860;13.664;2022-09-13T07:21:08;96323.19;;;18.98;86.11
25130;BME280;13308;50.860;13.664;2022-09-13T07:23:35;96314.97;;;19.64;83.86
25130;BME280;13308;50.860;13.664;2022-09-13T07:26:02;96320.22;;;19.56;84.44
25130;BME280;13308;50.860;13.664;2022-09-13T07:28:35;96315.16;;;19.60;84.03
25130;BME280;13308;50.860;13.664;2022-09-13T07:31:20;96320.56;;;19.44;82.93
25130;BME280;13308;50.860;13.664;2022-09-13T07:33:47;96328.94;;;19.24;84.45
25130;BME280;13308;50.860;13.664;2022-09-13T07:36:17;96326.13;;;19.24;82.22
25130;BME280;13308;50.860;13.664;2022-09-13T07:38:42;96314.06;;;19.18;83.38
25130;BME280;13308;50.860;13.664;2022-09-13T07:41:19;96331.59;;;19.33;81.23
25130;BME280;13308;50.860;13.664;2022-09-13T07:43:45;96321.69;;;19.52;80.53
25130;BME280;13308;50.860;13.664;2022-09-13T07:46:15;96326.16;;;19.64;82.04
25130;BME280;13308;50.860;13.664;2022-09-13T07:48:43;96331.03;;;19.69;79.06
25130;BME280;13308;50.860;13.664;2022-09-13T07:51:12;96333.78;;;19.83;80.57
25130;BME280;13308;50.860;13.664;2022-09-13T07:53:40;96346.19;;;19.77;79.19
25130;BME280;13308;50.860;13.664;2022-09-13T07:56:11;96334.22;;;19.56;80.58
25130;BME280;13308;50.860;13.664;2022-09-13T07:58:38;96324.91;;;19.65;79.99
25130;BME280;13308;50.860;13.664;2022-09-13T08:03:40;96324.19;;;19.50;83.34
25130;BME280;13308;50.860;13.664;2022-09-13T08:06:07;96326.56;;;19.37;82.06
25130;BME280;13308;50.860;13.664;2022-09-13T08:08:34;96323.69;;;19.32;81.84
25130;BME280;13308;50.860;13.664;2022-09-13T08:11:00;96323.91;;;19.28;82.40
25130;BME280;13308;50.860;13.664;2022-09-13T08:13:26;96320.25;;;19.22;82.12
25130;BME280;13308;50.860;13.664;2022-09-13T08:15:53;96331.88;;;18.86;85.58
25130;BME280;13308;50.860;13.664;2022-09-13T08:18:19;96327.06;;;18.72;88.45
25130;BME280;13308;50.860;13.664;2022-09-13T08:20:44;96326.16;;;18.46;88.77
25130;BME280;13308;50.860;13.664;2022-09-13T08:23:11;96336.28;;;18.20;89.06
25130;BME280;13308;50.860;13.664;2022-09-13T08:25:37;96330.91;;;18.17;91.30
25130;BME280;13308;50.860;13.664;2022-09-13T08:28:13;96327.78;;;17.86;95.42
25130;BME280;13308;50.860;13.664;2022-09-13T08:30:39;96338.72;;;17.75;94.22
25130;BME280;13308;50.860;13.664;2022-09-13T08:33:06;96336.84;;;17.57;96.31
25130;BME280;13308;50.860;13.664;2022-09-13T08:35:31;96343.72;;;17.47;97.37
25130;BME280;13308;50.860;13.664;2022-09-13T08:37:57;96331.91;;;17.52;100.00
25130;BME280;13308;50.860;13.664;2022-09-13T08:40:26;96330.47;;;17.33;100.00
25130;BME280;13308;50.860;13.664;2022-09-13T08:43:05;96327.63;;;17.19;100.00
25130;BME280;13308;50.860;13.664;2022-09-13T08:45:35;96348.38;;;17.18;100.00
25130;BME280;13308;50.860;13.664;2022-09-13T08:48:22;96348.19;;;17.21;100.00
25130;BME280;13308;50.860;13.664;2022-09-13T08:50:56;96338.28;;;17.20;100.00
25130;BME280;13308;50.860;13.664;2022-09-13T08:53:25;96336.72;;;17.19;100.00
25130;BME280;13308;50.860;13.664;2022-09-13T08:58:34;96325.59;;;17.19;100.00
25130;BME280;13308;50.860;13.664;2022-09-13T09:01:06;96324.66;;;17.22;100.00
25130;BME280;13308;50.860;13.664;2022-09-13T09:03:47;96320.78;;;17.20;100.00
25130;BME280;13308;50.860;13.664;2022-09-13T09:06:17;96320.72;;;17.38;100.00
25130;BME280;13308;50.860;13.664;2022-09-13T09:08:59;96334.50;;;17.32;100.00
25130;BME280;13308;50.860;13.664;2022-09-13T09:11:32;96329.69;;;17.33;100.00
25130;BME280;13308;50.860;13.664;2022-09-13T09:17:26;96310.72;;;17.69;100.00
25130;BME280;13308;50.860;13.664;2022-09-13T09:22:44;96310.47;;;17.96;100.00
25130;BME280;13308;50.860;13.664;2022-09-13T09:25:10;96316.47;;;18.18;100.00
25130;BME280;13308;50.860;13.664;2022-09-13T09:27:36;96309.19;;;18.35;100.00
25130;BME280;13308;50.860;13.664;2022-09-13T09:30:01;96307.16;;;18.50;100.00
25130;BME280;13308;50.860;13.664;2022-09-13T09:32:43;96311.50;;;18.51;100.00
25130;BME280;13308;50.860;13.664;2022-09-13T09:35:20;96312.84;;;18.70;100.00
25130;BME280;13308;50.860;13.664;2022-09-13T09:38:15;96310.69;;;18.80;95.67
25130;BME280;13308;50.860;13.664;2022-09-13T09:40:43;96308.28;;;19.22;96.79
25130;BME280;13308;50.860;13.664;2022-09-13T09:43:31;96299.78;;;19.50;91.16
25130;BME280;13308;50.860;13.664;2022-09-13T09:46:01;96304.25;;;19.82;91.65
25130;BME280;13308;50.860;13.664;2022-09-13T09:48:34;96303.88;;;19.95;86.33
25130;BME280;13308;50.860;13.664;2022-09-13T09:51:03;96300.19;;;20.29;87.78
25130;BME280;13308;50.860;13.664;2022-09-13T09:53:38;96299.53;;;20.14;84.58
25130;BME280;13308;50.860;13.664;2022-09-13T09:56:21;96294.41;;;20.38;85.83
25130;BME280;13308;50.860;13.664;2022-09-13T09:58:47;96289.69;;;20.49;83.88
25130;BME280;13308;50.860;13.664;2022-09-13T10:01:19;96293.69;;;21.41;81.40
25130;BME280;13308;50.860;13.664;2022-09-13T10:03:51;96277.00;;;21.74;79.07
25130;BME280;13308;50.860;13.664;2022-09-13T10:06:20;96286.94;;;21.70;81.76
25130;BME280;13308;50.860;13.664;2022-09-13T10:08:58;96284.53;;;22.16;78.19
25130;BME280;13308;50.860;13.664;2022-09-13T10:11:38;96286.53;;;21.93;79.52
25130;BME280;13308;50.860;13.664;2022-09-13T10:14:03;96279.31;;;21.76;79.54
25130;BME280;13308;50.860;13.664;2022-09-13T10:16:30;96275.00;;;21.33;79.91
25130;BME280;13308;50.860;13.664;2022-09-13T10:19:24;96270.75;;;21.48;79.08
25130;BME280;13308;50.860;13.664;2022-09-13T10:22:04;96274.78;;;21.95;77.08
25130;BME280;13308;50.860;13.664;2022-09-13T10:24:31;96279.16;;;22.12;77.09
25130;BME280;13308;50.860;13.664;2022-09-13T10:26:57;96276.25;;;21.74;76.94
25130;BME280;13308;50.860;13.664;2022-09-13T10:29:25;96275.72;;;21.70;77.00
25130;BME280;13308;50.860;13.664;2022-09-13T10:31:52;96274.41;;;21.65;78.00
25130;BME280;13308;50.860;13.664;2022-09-13T10:36:58;96265.72;;;21.63;77.72
25130;BME280;13308;50.860;13.664;2022-09-13T10:39:27;96269.16;;;21.84;78.21
25130;BME280;13308;50.860;13.664;2022-09-13T10:42:04;96266.41;;;21.47;78.63
25130;BME280;13308;50.860;13.664;2022-09-13T10:44:36;96265.66;;;21.52;78.65
25130;BME280;13308;50.860;13.664;2022-09-13T10:47:05;96270.44;;;21.41;76.95
25130;BME280;13308;50.860;13.664;2022-09-13T10:52:28;96248.59;;;21.56;80.91
25130;BME280;13308;50.860;13.664;2022-09-13T10:55:03;96249.41;;;21.67;79.28
25130;BME280;13308;50.860;13.664;2022-09-13T10:57:40;96258.00;;;21.53;78.78
25130;BME280;13308;50.860;13.664;2022-09-13T11:00:08;96252.53;;;21.86;77.43
25130;BME280;13308;50.860;13.664;2022-09-13T11:05:47;96260.16;;;21.74;76.11
25130;BME280;13308;50.860;13.664;2022-09-13T11:08:23;96261.59;;;21.59;75.88
25130;BME280;13308;50.860;13.664;2022-09-13T11:14:16;96263.81;;;21.97;74.13
25130;BME280;13308;50.860;13.664;2022-09-13T11:16:50;96257.44;;;22.02;76.36
25130;BME280;13308;50.860;13.664;2022-09-13T11:25:24;96252.59;;;22.19;74.79
25130;BME280;13308;50.860;13.664;2022-09-13T11:28:25;96246.94;;;21.86;74.21
25130;BME280;13308;50.860;13.664;2022-09-13T11:31:05;96250.28;;;21.90;76.38
25130;BME280;13308;50.860;13.664;2022-09-13T11:34:10;96242.13;;;22.03;75.59
25130;BME280;13308;50.860;13.664;2022-09-13T11:39:51;96227.75;;;21.73;75.86
25130;BME280;13308;50.860;13.664;2022-09-13T11:42:50;96232.91;;;22.02;74.85
25130;BME280;13308;50.860;13.664;2022-09-13T11:45:24;96231.66;;;22.14;74.75
25130;BME280;13308;50.860;13.664;2022-09-13T11:53:55;96232.94;;;22.19;74.77
25130;BME280;13308;50.860;13.664;2022-09-13T11:56:54;96233.22;;;22.37;74.44
25130;BME280;13308;50.860;13.664;2022-09-13T11:59:36;96221.22;;;22.81;76.28
25130;BME280;13308;50.860;13.664;2022-09-13T12:02:13;96222.75;;;23.72;68.52
25130;BME280;13308;50.860;13.664;2022-09-13T12:07:32;96232.13;;;23.91;63.76
25130;BME280;13308;50.860;13.664;2022-09-13T12:10:05;96236.06;;;24.23;63.55
25130;BME280;13308;50.860;13.664;2022-09-13T12:12:34;96240.34;;;24.70;61.82
25130;BME280;13308;50.860;13.664;2022-09-13T12:15:13;96229.13;;;24.24;59.57
25130;BME280;13308;50.860;13.664;2022-09-13T12:17:42;96233.25;;;24.23;60.02
25130;BME280;13308;50.860;13.664;2022-09-13T12:20:21;96230.88;;;24.67;61.50
25130;BME280;13308;50.860;13.664;2022-09-13T12:22:48;96227.34;;;24.61;62.88
25130;BME280;13308;50.860;13.664;2022-09-13T12:25:22;96229.28;;;24.72;62.28
25130;BME280;13308;50.860;13.664;2022-09-13T12:27:56;96225.19;;;24.38;61.90
25130;BME280;13308;50.860;13.664;2022-09-13T12:30:28;96218.16;;;24.15;60.78
25130;BME280;13308;50.860;13.664;2022-09-13T12:32:57;96208.06;;;23.90;61.40
25130;BME280;13308;50.860;13.664;2022-09-13T12:35:27;96205.78;;;23.83;64.31
25130;BME280;13308;50.860;13.664;2022-09-13T12:38:03;96210.00;;;23.60;64.33
25130;BME280;13308;50.860;13.664;2022-09-13T12:41:06;96199.75;;;23.62;62.51
25130;BME280;13308;50.860;13.664;2022-09-13T12:44:11;96199.47;;;23.66;64.58
25130;BME280;13308;50.860;13.664;2022-09-13T12:50:12;96204.84;;;25.04;59.20
25130;BME280;13308;50.860;13.664;2022-09-13T12:53:16;96197.81;;;25.16;59.28
25130;BME280;13308;50.860;13.664;2022-09-13T12:58:43;96202.16;;;25.17;57.04
25130;BME280;13308;50.860;13.664;2022-09-13T13:01:19;96195.97;;;25.42;57.03
25130;BME280;13308;50.860;13.664;2022-09-13T13:03:50;96189.63;;;25.12;56.03
25130;BME280;13308;50.860;13.664;2022-09-13T13:06:36;96192.19;;;24.27;57.63
25130;BME280;13308;50.860;13.664;2022-09-13T13:09:23;96195.38;;;24.48;59.17
25130;BME280;13308;50.860;13.664;2022-09-13T13:11:49;96191.78;;;24.47;58.35
25130;BME280;13308;50.860;13.664;2022-09-13T13:19:57;96182.50;;;24.58;58.38
25130;BME280;13308;50.860;13.664;2022-09-13T13:25:31;96185.91;;;24.99;58.49
25130;BME280;13308;50.860;13.664;2022-09-13T13:27:57;96179.47;;;24.45;58.28
25130;BME280;13308;50.860;13.664;2022-09-13T13:30:49;96184.47;;;24.63;56.01
25130;BME280;13308;50.860;13.664;2022-09-13T13:33:21;96171.47;;;24.25;56.70
25130;BME280;13308;50.860;13.664;2022-09-13T13:35:47;96177.81;;;24.31;57.94
25130;BME280;13308;50.860;13.664;2022-09-13T13:38:33;96176.03;;;25.35;56.37
25130;BME280;13308;50.860;13.664;2022-09-13T13:41:07;96182.63;;;26.35;54.41
25130;BME280;13308;50.860;13.664;2022-09-13T13:43:34;96175.31;;;26.90;53.53
25130;BME280;13308;50.860;13.664;2022-09-13T13:48:40;96187.88;;;26.76;51.90
25130;BME280;13308;50.860;13.664;2022-09-13T13:51:19;96182.53;;;27.30;52.12
25130;BME280;13308;50.860;13.664;2022-09-13T13:53:52;96180.63;;;26.49;50.99
25130;BME280;13308;50.860;13.664;2022-09-13T13:56:23;96180.75;;;26.25;51.42
25130;BME280;13308;50.860;13.664;2022-09-13T13:59:11;96168.38;;;26.09;51.95
25130;BME280;13308;50.860;13.664;2022-09-13T14:01:44;96170.56;;;25.79;52.49
25130;BME280;13308;50.860;13.664;2022-09-13T14:04:36;96166.59;;;25.88;51.12
25130;BME280;13308;50.860;13.664;2022-09-13T14:07:16;96166.22;;;26.47;50.52
25130;BME280;13308;50.860;13.664;2022-09-13T14:09:58;96182.66;;;28.10;47.30
25130;BME280;13308;50.860;13.664;2022-09-13T14:12:36;96175.88;;;28.13;47.97
25130;BME280;13308;50.860;13.664;2022-09-13T14:15:21;96184.09;;;28.37;48.70
25130;BME280;13308;50.860;13.664;2022-09-13T14:20:16;96162.31;;;26.81;50.16
25130;BME280;13308;50.860;13.664;2022-09-13T14:22:42;96163.53;;;26.86;51.35
25130;BME280;13308;50.860;13.664;2022-09-13T14:25:26;96158.53;;;25.97;52.09
25130;BME280;13308;50.860;13.664;2022-09-13T14:27:55;96146.28;;;25.34;54.77
25130;BME280;13308;50.860;13.664;2022-09-13T14:30:30;96149.47;;;24.77;54.80
25130;BME280;13308;50.860;13.664;2022-09-13T14:32:57;96142.97;;;23.99;57.09
25130;BME280;13308;50.860;13.664;2022-09-13T14:37:50;96150.47;;;23.39;59.94
25130;BME280;13308;50.860;13.664;2022-09-13T14:40:22;96147.81;;;22.95;61.95
25130;BME280;13308;50.860;13.664;2022-09-13T14:42:49;96143.56;;;22.56;63.47
25130;BME280;13308;50.860;13.664;2022-09-13T14:48:36;96135.09;;;22.28;63.14
25130;BME280;13308;50.860;13.664;2022-09-13T14:50:39;96135.88;;;22.29;63.80
25130;BME280;13308;50.860;13.664;2022-09-13T14:53:17;96132.06;;;22.10;66.41
25130;BME280;13308;50.860;13.664;2022-09-13T14:56:12;96127.19;;;21.83;67.54
25130;BME280;13308;50.860;13.664;2022-09-13T14:58:44;96125.16;;;21.78;67.81
25130;BME280;13308;50.860;13.664;2022-09-13T15:01:17;96116.22;;;21.74;67.90
25130;BME280;13308;50.860;13.664;2022-09-13T15:03:45;96118.44;;;21.53;69.49
25130;BME280;13308;50.860;13.664;2022-09-13T15:06:26;96109.53;;;21.60;70.58
25130;BME280;13308;50.860;13.664;2022-09-13T15:09:01;96116.66;;;21.56;70.07
25130;BME280;13308;50.860;13.664;2022-09-13T15:11:54;96108.53;;;21.63;70.45
25130;BME280;13308;50.860;13.664;2022-09-13T15:14:23;96118.69;;;21.55;72.09
25130;BME280;13308;50.860;13.664;2022-09-13T15:16:52;96113.41;;;21.74;70.89
25130;BME280;13308;50.860;13.664;2022-09-13T15:19:28;96125.66;;;21.82;71.04
25130;BME280;13308;50.860;13.664;2022-09-13T15:22:02;96118.00;;;21.77;72.38
25130;BME280;13308;50.860;13.664;2022-09-13T15:24:31;96121.31;;;21.81;71.69
25130;BME280;13308;50.860;13.664;2022-09-13T15:27:04;96121.31;;;21.86;73.24
25130;BME280;13308;50.860;13.664;2022-09-13T15:29:31;96127.19;;;21.94;74.84
25130;BME280;13308;50.860;13.664;2022-09-13T15:32:02;96125.69;;;22.26;71.72
25130;BME280;13308;50.860;13.664;2022-09-13T15:34:28;96123.63;;;22.43;70.82
25130;BME280;13308;50.860;13.664;2022-09-13T15:39:25;96121.06;;;22.45;70.14
25130;BME280;13308;50.860;13.664;2022-09-13T15:41:58;96118.19;;;22.67;70.91
25130;BME280;13308;50.860;13.664;2022-09-13T15:44:27;96120.44;;;22.85;70.30
25130;BME280;13308;50.860;13.664;2022-09-13T15:47:10;96119.91;;;23.03;69.97
25130;BME280;13308;50.860;13.664;2022-09-13T15:49:40;96117.38;;;22.94;70.49
25130;BME280;13308;50.860;13.664;2022-09-13T15:52:10;96108.25;;;22.55;70.35
25130;BME280;13308;50.860;13.664;2022-09-13T15:54:39;96116.19;;;22.56;69.41
25130;BME280;13308;50.860;13.664;2022-09-13T15:57:08;96113.41;;;22.51;70.95
25130;BME280;13308;50.860;13.664;2022-09-13T15:59:37;96123.34;;;22.41;71.26
25130;BME280;13308;50.860;13.664;2022-09-13T16:02:15;96115.16;;;22.54;70.95
25130;BME280;13308;50.860;13.664;2022-09-13T16:04:41;96119.78;;;22.46;71.12
25130;BME280;13308;50.860;13.664;2022-09-13T16:07:07;96117.50;;;22.50;69.96
25130;BME280;13308;50.860;13.664;2022-09-13T16:09:32;96118.75;;;22.38;71.35
25130;BME280;13308;50.860;13.664;2022-09-13T16:11:57;96127.19;;;22.38;67.97
25130;BME280;13308;50.860;13.664;2022-09-13T16:14:23;96122.34;;;22.22;68.94
25130;BME280;13308;50.860;13.664;2022-09-13T16:16:48;96124.66;;;21.96;69.25
25130;BME280;13308;50.860;13.664;2022-09-13T16:19:16;96120.78;;;21.77;67.83
25130;BME280;13308;50.860;13.664;2022-09-13T16:21:42;96113.13;;;21.72;68.57
25130;BME280;13308;50.860;13.664;2022-09-13T16:24:08;96118.94;;;21.52;71.82
25130;BME280;13308;50.860;13.664;2022-09-13T16:26:34;96117.31;;;21.18;71.61
25130;BME280;13308;50.860;13.664;2022-09-13T16:28:59;96112.94;;;21.06;72.27
25130;BME280;13308;50.860;13.664;2022-09-13T16:31:25;96102.75;;;21.03;72.66
25130;BME280;13308;50.860;13.664;2022-09-13T16:33:50;96105.75;;;20.94;74.74
25130;BME280;13308;50.860;13.664;2022-09-13T16:36:15;96095.00;;;20.87;74.91
25130;BME280;13308;50.860;13.664;2022-09-13T16:38:41;96098.81;;;20.84;74.55
25130;BME280;13308;50.860;13.664;2022-09-13T16:41:07;96099.75;;;20.64;78.27
25130;BME280;13308;50.860;13.664;2022-09-13T16:43:32;96100.06;;;20.30;78.73
25130;BME280;13308;50.860;13.664;2022-09-13T16:45:59;96098.72;;;20.20;80.34
25130;BME280;13308;50.860;13.664;2022-09-13T16:48:29;96087.75;;;20.22;80.40
25130;BME280;13308;50.860;13.664;2022-09-13T16:51:00;96091.03;;;20.15;81.53
25130;BME280;13308;50.860;13.664;2022-09-13T16:53:26;96101.44;;;20.09;82.38
25130;BME280;13308;50.860;13.664;2022-09-13T16:55:51;96097.03;;;20.02;83.08
25130;BME280;13308;50.860;13.664;2022-09-13T16:58:16;96087.88;;;20.02;84.04
25130;BME280;13308;50.860;13.664;2022-09-13T17:00:42;96093.28;;;19.80;85.82
25130;BME280;13308;50.860;13.664;2022-09-13T17:03:08;96078.16;;;19.66;85.72
25130;BME280;13308;50.860;13.664;2022-09-13T17:05:33;96079.41;;;19.65;86.17
25130;BME280;13308;50.860;13.664;2022-09-13T17:07:58;96082.72;;;19.64;87.02
25130;BME280;13308;50.860;13.664;2022-09-13T17:10:24;96080.91;;;19.61;86.97
25130;BME280;13308;50.860;13.664;2022-09-13T17:12:49;96085.19;;;19.56;86.81
25130;BME280;13308;50.860;13.664;2022-09-13T17:15:14;96093.03;;;19.52;88.55
25130;BME280;13308;50.860;13.664;2022-09-13T17:17:40;96093.72;;;19.42;90.03
25130;BME280;13308;50.860;13.664;2022-09-13T17:20:08;96094.16;;;19.35;88.18
25130;BME280;13308;50.860;13.664;2022-09-13T17:22:34;96087.22;;;19.30;89.35
25130;BME280;13308;50.860;13.664;2022-09-13T17:25:00;96085.66;;;19.24;90.11
25130;BME280;13308;50.860;13.664;2022-09-13T17:27:26;96083.25;;;19.17;90.70
25130;BME280;13308;50.860;13.664;2022-09-13T17:29:51;96081.16;;;19.12;92.24
25130;BME280;13308;50.860;13.664;2022-09-13T17:32:17;96084.81;;;18.98;91.99
25130;BME280;13308;50.860;13.664;2022-09-13T17:34:43;96079.19;;;18.73;94.24
